Cmb Sakura — 3EGO3 — position and weather

sailwx.info

Track history (hours):
 
Tides and Currents Weather Stations Pressure Air Temp Water Temp Dewpoint Dewpoint Depression Visibility Wind Speed Wind Dir Waves Ship Positions

Cmb Sakura

Last reported at 2014-Jul-27 02:09 UTC. Time now 2014-Aug-21 02:25 UTC.
Position N 30°03' E 123°42'.
Warning: this ship's position is 25 days out of date.

Length 225 m; draft 6.7 m.

Type: Cargo ship. MMSI: 371784000.

Date/timePositionNaut miles runAvg speedWind from/ knotsBaromVisibWave heightAir tempDewpointWater temp
2014-Jul-27 02:09N 30°03' E 123°42'1012.3
2014-Jul-27 01:21N 30°13' E 123°43'45713.0
2014-Jul-25 14:18N 37°47' E 122°38'811.3
2014-Jul-25 13:33N 37°49' E 122°28'1110.8
2014-Jul-25 12:33N 37°50' E 122°15'1010.1
2014-Jul-25 11:33N 37°52' E 122°02'11 9.5
2014-Jul-25 10:25N 37°54' E 121°48'1210.1
2014-Jul-25 09:11N 37°57' E 121°33'22 2.9
2014-Jul-25 01:25N 38°19' E 121°28'15210.6
2014-Jul-24 11:05N 38°50' E 118°17'1 0.2
2014-Jul-24 03:21N 38°51' E 118°15'8 7.3
2014-Jul-24 02:12N 38°55' E 118°06'3 4.7
2014-Jul-24 01:33N 38°56' E 118°02'1111.3
2014-Jul-24 00:33N 38°59' E 117°48'5 4.0
2014-Jul-23 23:25N 39°03' E 117°46'0 0.0
2014-Jul-23 22:28N 39°03' E 117°46'0 0.0
2014-Jul-23 21:31N 39°03' E 117°46'0 0.0
2014-Jul-23 20:31N 39°03' E 117°46'0 0.0
2014-Jul-23 19:31N 39°03' E 117°46'0 0.0
2014-Jul-23 18:31N 39°03' E 117°46'0 0.0
2014-Jul-23 17:31N 39°03' E 117°46'0 0.0
2014-Jul-23 16:31N 39°03' E 117°46'0 0.0
2014-Jul-23 15:28N 39°03' E 117°46'0 0.0
2014-Jul-23 14:31N 39°03' E 117°46'0 0.0
2014-Jul-23 13:31N 39°03' E 117°46'0 0.0
2014-Jul-23 12:31N 39°03' E 117°46'0 0.0
2014-Jul-23 11:31N 39°03' E 117°46'0 0.0
2014-Jul-23 10:28N 39°03' E 117°46'0 0.0
2014-Jul-23 09:31N 39°03' E 117°46'0 0.0
2014-Jul-23 08:31N 39°03' E 117°46'0 0.0
2014-Jul-23 07:31N 39°03' E 117°46'0 0.0
2014-Jul-23 06:31N 39°03' E 117°46'0 0.0
2014-Jul-23 05:31N 39°03' E 117°46'0 0.0
2014-Jul-23 04:31N 39°03' E 117°46'0 0.0
2014-Jul-23 03:31N 39°03' E 117°46'0 0.0
2014-Jul-23 02:31N 39°03' E 117°46'0 0.0
2014-Jul-23 01:31N 39°03' E 117°46'0 0.0
2014-Jul-23 00:22N 39°03' E 117°46'0 0.0
2014-Jul-22 23:31N 39°03' E 117°46'0 0.0
2014-Jul-22 22:28N 39°03' E 117°46'0 0.0
2014-Jul-22 21:31N 39°03' E 117°46'0 0.0
2014-Jul-22 20:31N 39°03' E 117°46'0 0.0
2014-Jul-22 19:31N 39°03' E 117°46'0 0.0
2014-Jul-22 18:31N 39°03' E 117°46'0 0.0
2014-Jul-22 17:31N 39°03' E 117°46'0 0.0
2014-Jul-22 16:31N 39°03' E 117°46'0 0.0
2014-Jul-22 15:31N 39°03' E 117°46'0 0.0
2014-Jul-22 14:31N 39°03' E 117°46'0 0.0
2014-Jul-22 13:31N 39°03' E 117°46'0 0.0
2014-Jul-22 12:28N 39°03' E 117°46'0 0.0
2014-Jul-22 11:28N 39°03' E 117°46'0 0.0
2014-Jul-22 10:28N 39°03' E 117°46'0 0.0
2014-Jul-22 09:31N 39°03' E 117°46'0 0.0
2014-Jul-22 08:31N 39°03' E 117°46'0 0.0
2014-Jul-22 07:31N 39°03' E 117°46'0 0.0
2014-Jul-22 06:31N 39°03' E 117°46'0 0.0
2014-Jul-22 05:28N 39°03' E 117°46'0 0.0
2014-Jul-22 04:31N 39°03' E 117°46'0 0.0
2014-Jul-22 03:31N 39°03' E 117°46'0 0.0
2014-Jul-22 02:31N 39°03' E 117°46'0 0.0
2014-Jul-22 01:31N 39°03' E 117°46'0 0.0
2014-Jul-22 00:31N 39°03' E 117°46'0 0.0
2014-Jul-21 23:31N 39°03' E 117°46'0 0.0
2014-Jul-21 22:31N 39°03' E 117°46'0 0.0
2014-Jul-21 21:31N 39°03' E 117°46'0 0.0
2014-Jul-21 20:31N 39°03' E 117°46'0 0.0
2014-Jul-21 20:16N 39°03' E 117°46'0 0.0
2014-Jul-21 19:31N 39°03' E 117°46'0 0.0
2014-Jul-21 18:31N 39°03' E 117°46'0 0.0
2014-Jul-21 17:31N 39°03' E 117°46'0 0.0
2014-Jul-21 16:31N 39°03' E 117°46'0 0.0
2014-Jul-21 15:31N 39°03' E 117°46'0 0.0
2014-Jul-21 14:31N 39°03' E 117°46'0 0.0
2014-Jul-21 13:31N 39°03' E 117°46'0 0.0
2014-Jul-21 12:31N 39°03' E 117°46'0 0.0
2014-Jul-21 11:31N 39°03' E 117°46'0 0.0
2014-Jul-21 10:28N 39°03' E 117°46'0 0.0
2014-Jul-21 09:31N 39°03' E 117°46'0 0.0
2014-Jul-21 08:28N 39°03' E 117°46'0 0.0
2014-Jul-21 07:28N 39°03' E 117°46'0 0.0
2014-Jul-21 06:31N 39°03' E 117°46'0 0.0
2014-Jul-21 05:31N 39°03' E 117°46'0 0.0
2014-Jul-21 04:31N 39°03' E 117°46'1 1.5
2014-Jul-21 03:33N 39°01' E 117°46'7 6.6
2014-Jul-21 02:34N 38°57' E 117°53'1110.7
2014-Jul-21 01:33N 38°56' E 118°07'1 0.8
2014-Jul-21 00:12N 38°57' E 118°07'2 2.6
2014-Jul-20 23:33N 38°55' E 118°08'9410.4
2014-Jul-20 14:32N 38°42' E 120°08'5111.5
2014-Jul-20 10:04N 38°29' E 121°11'712.3
2014-Jul-20 09:32N 38°26' E 121°19'1312.7
2014-Jul-20 08:33N 38°20' E 121°33'1212.1
2014-Jul-20 07:34N 38°14' E 121°46'1212.0
2014-Jul-20 06:33N 38°08' E 121°60'1211.8
2014-Jul-20 05:33N 38°02' E 122°12'1211.9
2014-Jul-20 04:32N 37°56' E 122°26'4611.2
2014-Jul-20 00:23N 37°22' E 123°05'1511.1
2014-Jul-19 23:04N 37°09' E 123°12'1911.4
2014-Jul-19 21:26N 36°52' E 123°21'1211.9
2014-Jul-19 20:23N 36°40' E 123°27'32712.0
2014-Jul-18 17:09N 31°14' E 123°58'911.9
2014-Jul-18 16:24N 31°05' E 123°56'1011.6
2014-Jul-18 15:32N 30°55' E 123°54'1211.9
2014-Jul-18 14:33N 30°44' E 123°52'3611.6
2014-Jul-18 11:27N 30°08' E 123°44'1111.9
2014-Jul-18 10:29N 29°57' E 123°42'1112.0
2014-Jul-18 09:33N 29°46' E 123°39'  
Track history (hours):
 
Tides and Currents Weather Stations Pressure Air Temp Water Temp Dewpoint Dewpoint Depression Visibility Wind Speed Wind Dir Waves Ship Positions

Cmb Sakura

Last reported at 2014-Jul-27 02:09 UTC. Time now 2014-Aug-21 02:25 UTC.
Position N 30°03' E 123°42'.
Warning: this ship's position is 25 days out of date.

Length 225 m; draft 6.7 m.

Type: Cargo ship. MMSI: 371784000.

Date/timePositionNaut miles runAvg speedWind from/ knotsBaromVisibWave heightAir tempDewpointWater temp
2014-Jul-27 02:09N 30°03' E 123°42'1012.3
2014-Jul-27 01:21N 30°13' E 123°43'45713.0
2014-Jul-25 14:18N 37°47' E 122°38'811.3
2014-Jul-25 13:33N 37°49' E 122°28'1110.8
2014-Jul-25 12:33N 37°50' E 122°15'1010.1
2014-Jul-25 11:33N 37°52' E 122°02'11 9.5
2014-Jul-25 10:25N 37°54' E 121°48'1210.1
2014-Jul-25 09:11N 37°57' E 121°33'22 2.9
2014-Jul-25 01:25N 38°19' E 121°28'15210.6
2014-Jul-24 11:05N 38°50' E 118°17'1 0.2
2014-Jul-24 03:21N 38°51' E 118°15'8 7.3
2014-Jul-24 02:12N 38°55' E 118°06'3 4.7
2014-Jul-24 01:33N 38°56' E 118°02'1111.3
2014-Jul-24 00:33N 38°59' E 117°48'5 4.0
2014-Jul-23 23:25N 39°03' E 117°46'0 0.0
2014-Jul-23 22:28N 39°03' E 117°46'0 0.0
2014-Jul-23 21:31N 39°03' E 117°46'0 0.0
2014-Jul-23 20:31N 39°03' E 117°46'0 0.0
2014-Jul-23 19:31N 39°03' E 117°46'0 0.0
2014-Jul-23 18:31N 39°03' E 117°46'0 0.0
2014-Jul-23 17:31N 39°03' E 117°46'0 0.0
2014-Jul-23 16:31N 39°03' E 117°46'0 0.0
2014-Jul-23 15:28N 39°03' E 117°46'0 0.0
2014-Jul-23 14:31N 39°03' E 117°46'0 0.0
2014-Jul-23 13:31N 39°03' E 117°46'0 0.0
2014-Jul-23 12:31N 39°03' E 117°46'0 0.0
2014-Jul-23 11:31N 39°03' E 117°46'0 0.0
2014-Jul-23 10:28N 39°03' E 117°46'0 0.0
2014-Jul-23 09:31N 39°03' E 117°46'0 0.0
2014-Jul-23 08:31N 39°03' E 117°46'0 0.0
2014-Jul-23 07:31N 39°03' E 117°46'0 0.0
2014-Jul-23 06:31N 39°03' E 117°46'0 0.0
2014-Jul-23 05:31N 39°03' E 117°46'0 0.0
2014-Jul-23 04:31N 39°03' E 117°46'0 0.0
2014-Jul-23 03:31N 39°03' E 117°46'0 0.0
2014-Jul-23 02:31N 39°03' E 117°46'0 0.0
2014-Jul-23 01:31N 39°03' E 117°46'0 0.0
2014-Jul-23 00:22N 39°03' E 117°46'0 0.0
2014-Jul-22 23:31N 39°03' E 117°46'0 0.0
2014-Jul-22 22:28N 39°03' E 117°46'0 0.0
2014-Jul-22 21:31N 39°03' E 117°46'0 0.0
2014-Jul-22 20:31N 39°03' E 117°46'0 0.0
2014-Jul-22 19:31N 39°03' E 117°46'0 0.0
2014-Jul-22 18:31N 39°03' E 117°46'0 0.0
2014-Jul-22 17:31N 39°03' E 117°46'0 0.0
2014-Jul-22 16:31N 39°03' E 117°46'0 0.0
2014-Jul-22 15:31N 39°03' E 117°46'0 0.0
2014-Jul-22 14:31N 39°03' E 117°46'0 0.0
2014-Jul-22 13:31N 39°03' E 117°46'0 0.0
2014-Jul-22 12:28N 39°03' E 117°46'0 0.0
2014-Jul-22 11:28N 39°03' E 117°46'0 0.0
2014-Jul-22 10:28N 39°03' E 117°46'0 0.0
2014-Jul-22 09:31N 39°03' E 117°46'0 0.0
2014-Jul-22 08:31N 39°03' E 117°46'0 0.0
2014-Jul-22 07:31N 39°03' E 117°46'0 0.0
2014-Jul-22 06:31N 39°03' E 117°46'0 0.0
2014-Jul-22 05:28N 39°03' E 117°46'0 0.0
2014-Jul-22 04:31N 39°03' E 117°46'0 0.0
2014-Jul-22 03:31N 39°03' E 117°46'0 0.0
2014-Jul-22 02:31N 39°03' E 117°46'0 0.0
2014-Jul-22 01:31N 39°03' E 117°46'0 0.0
2014-Jul-22 00:31N 39°03' E 117°46'0 0.0
2014-Jul-21 23:31N 39°03' E 117°46'0 0.0
2014-Jul-21 22:31N 39°03' E 117°46'0 0.0
2014-Jul-21 21:31N 39°03' E 117°46'0 0.0
2014-Jul-21 20:31N 39°03' E 117°46'0 0.0
2014-Jul-21 20:16N 39°03' E 117°46'0 0.0
2014-Jul-21 19:31N 39°03' E 117°46'0 0.0
2014-Jul-21 18:31N 39°03' E 117°46'0 0.0
2014-Jul-21 17:31N 39°03' E 117°46'0 0.0
2014-Jul-21 16:31N 39°03' E 117°46'0 0.0
2014-Jul-21 15:31N 39°03' E 117°46'0 0.0
2014-Jul-21 14:31N 39°03' E 117°46'0 0.0
2014-Jul-21 13:31N 39°03' E 117°46'0 0.0
2014-Jul-21 12:31N 39°03' E 117°46'0 0.0
2014-Jul-21 11:31N 39°03' E 117°46'0 0.0
2014-Jul-21 10:28N 39°03' E 117°46'0 0.0
2014-Jul-21 09:31N 39°03' E 117°46'0 0.0
2014-Jul-21 08:28N 39°03' E 117°46'0 0.0
2014-Jul-21 07:28N 39°03' E 117°46'0 0.0
2014-Jul-21 06:31N 39°03' E 117°46'0 0.0
2014-Jul-21 05:31N 39°03' E 117°46'0 0.0
2014-Jul-21 04:31N 39°03' E 117°46'1 1.5
2014-Jul-21 03:33N 39°01' E 117°46'7 6.6
2014-Jul-21 02:34N 38°57' E 117°53'1110.7
2014-Jul-21 01:33N 38°56' E 118°07'1 0.8
2014-Jul-21 00:12N 38°57' E 118°07'2 2.6
2014-Jul-20 23:33N 38°55' E 118°08'9410.4
2014-Jul-20 14:32N 38°42' E 120°08'5111.5
2014-Jul-20 10:04N 38°29' E 121°11'712.3
2014-Jul-20 09:32N 38°26' E 121°19'1312.7
2014-Jul-20 08:33N 38°20' E 121°33'1212.1
2014-Jul-20 07:34N 38°14' E 121°46'1212.0
2014-Jul-20 06:33N 38°08' E 121°60'1211.8
2014-Jul-20 05:33N 38°02' E 122°12'1211.9
2014-Jul-20 04:32N 37°56' E 122°26'4611.2
2014-Jul-20 00:23N 37°22' E 123°05'1511.1
2014-Jul-19 23:04N 37°09' E 123°12'1911.4
2014-Jul-19 21:26N 36°52' E 123°21'1211.9
2014-Jul-19 20:23N 36°40' E 123°27'32712.0
2014-Jul-18 17:09N 31°14' E 123°58'911.9
2014-Jul-18 16:24N 31°05' E 123°56'1011.6
2014-Jul-18 15:32N 30°55' E 123°54'1211.9
2014-Jul-18 14:33N 30°44' E 123°52'3611.6
2014-Jul-18 11:27N 30°08' E 123°44'1111.9
2014-Jul-18 10:29N 29°57' E 123°42'1112.0
2014-Jul-18 09:33N 29°46' E 123°39'  

Dump ship's entire track history